Sherburne, NY (13460)

10:41 PM EDT on August 23, 2016 (GMT -0400)
APRSWXNET | | Change Station

Elev 1055 ft 42.69 °N, 75.50 °W | Updated 27 minutes ago

Clear
Clear
59 °F
Feels Like 59 °F
N
2
Wind Variable Wind from ENE
Gusts 4.0 mph

Today
High -- | Low -- °F
--% Chance of Precip.
Yesterday
High -- | Low -- °F
Precip. -- in
Pressure 30.28 in
Visibility 10.0 miles
Clouds Clear
Dew Point 57 °F
Humidity 92%
Rainfall in
Snow Depth Not available.
6:17 AM 7:50 PM
Waning Gibbous, 62% visible
METAR KN03 240235Z AUTO 00000KT 10SM CLR 16/14 A3028 RMK AO2
Pressure 30.28 in
Visibility 10.0 miles
Clouds Clear
Dew Point 57 °F
Humidity 92%
Rainfall in
Snow Depth Not available.
6:17 AM 7:50 PM
Waning Gibbous, 62% visible
METAR KN03 240235Z AUTO 00000KT 10SM CLR 16/14 A3028 RMK AO2

10-Day Weather Forecast

Almanac

Astronomy

Aug. 23, 2016 Rise Set
Actual Time
Civil Twilight
Nautical Twilight
Astronomical Twilight
Moon
Length of Visible Light
Length of Day
Tomorrow will be .
, % of the Moon is Illuminated

Today's Extremes

State Highs State Lows

Community

WunderPhotos

Upload Photos

1,934,533 photos uploaded!

WunderBlog® & News

Nearby

Air Quality

  Air Quality AQ Index Pollutant
Not available.

Snow Depth

Station Depth Elevation

Earthquake Activity

City Distance Mag. Time & Date
Minimum magnitude displayed is 2.5.

Coastal Water Temperatures

Place Temperature

Stations

Nearby Weather Stations

Station Location Temp. Windchill Dew Point Humidity Wind Precip. Elev Updated Type
                   

Watches & Warnings

There are currently no watches in effect.